Tropical Cyclones
[Index]
Main Index Home Page Stock Weather Photos Extreme Storms Discussion Storm News and Storm Chasing Reports Tropical Cyclones / Hurricanes / Typhoons Weather Data and Links Wild Fires / Bushfires Weather Observation Techniques Weather Picture Catalogue Tornado Pictures and Reports Stock Video Footage and DVDs for sale
Season 1962-1963 Tropical Cyclone 196263_25 Track Map
Season 1962-1963 Summaries: [BoM-AU] [JTWC-AU] [JTWC-SIO] [JTWC-SPAC] [JTWC-SH]
<<- Previous TC | BoM 1962-1963 Season | Next TC ->>

click for intensity scale information  Lat/long Grid: Show Hide

 Date Labels: Show Hide

Bureau of Meteorology Tropical Cyclone Data

Name: 196263_25
Number: 367 / 196263_25

15 Mar 1963 01:00 UTC to 24 Mar 1963 01:00 UTC

    date/time    lat    long    hPa   cat  kts
1963-03-15 01   10.0   101.0   1004                     
1963-03-15 04   10.1   100.9   1004                     
1963-03-15 07   10.3   100.8   1004                     
1963-03-15 10   10.4   100.7   1004                     
1963-03-15 16   10.7   100.4   1004                     
1963-03-15 19   10.8   100.3   1003                     
1963-03-15 22   10.9   100.1   1003                     
1963-03-16 01   11.0   100.0   1003                     
1963-03-16 04   11.2    99.8   1003                     
1963-03-16 07   11.5    99.5   1003                     
1963-03-16 10   11.7    99.2   1002                     
1963-03-16 16   12.2    98.7   1002                     
1963-03-16 19   12.5    98.5   1002                     
1963-03-16 22   12.8    98.2   1002                     
1963-03-17 01   13.0    98.0   1001                     
1963-03-17 04   13.1    97.8   1000                     
1963-03-17 07   13.3    97.5   1000                     
1963-03-17 10   13.4    97.2    999                     
1963-03-17 16   13.7    96.7    999                     
1963-03-17 19   13.8    96.5    998                     
1963-03-17 22   13.9    96.2    997                     
1963-03-18 01   14.0    96.0    997                     
1963-03-18 04   14.3    95.6    996                     
1963-03-18 07   14.6    95.2    995    1                
1963-03-18 10   15.0    94.8    994    1                
1963-03-18 16   15.8    94.0    993    1                
1963-03-18 19   16.2    93.6    992    1                
1963-03-18 22   16.6    93.3    991    1                
1963-03-19 01   17.0    93.0    990    1                
1963-03-19 04   17.2    92.9    990    1                
1963-03-19 07   17.5    92.8    991    1                
1963-03-19 10   17.8    92.7    991    1                
1963-03-19 16   18.3    92.4    992    1                
1963-03-20 07   19.3    92.0    995    1                
1963-03-20 16   19.7    92.0    995    1                
1963-03-21 07   20.5    92.3    995    1                
1963-03-21 16   21.2    92.7    995    1                
1963-03-21 19   21.5    92.8    995    1                
1963-03-21 22   21.8    92.9    995    1                
1963-03-22 01   22.0    93.0    995    1                
1963-03-22 04   22.1    93.6    995    1                
1963-03-22 07   22.3    94.2    995    1                
1963-03-22 10   22.4    95.0    995    1                
1963-03-22 16   22.7    96.2    995    1                
1963-03-22 19   22.8    96.8    995    1                
1963-03-22 22   22.9    97.4    995    1                
1963-03-23 01   23.0    98.0    995    1                
1963-03-23 04   23.0    98.0    996                     
1963-03-23 07   23.0    98.0    997                     
1963-03-23 10   23.0    98.0    998                     
1963-03-23 16   23.0    98.0   1000                     
1963-03-23 19   23.0    98.0   1001                     
1963-03-23 22   23.0    98.0   1002                     
1963-03-24 01   23.0    98.0   1003                     
Winds are 10-min average.

Tropical cyclone tracks developed by Michael Bath using data from the Bureau of Meteorology and Google Maps.


[Australian Severe Weather index] [Copyright Notice] [Email Contacts] [Search This Site] [Privacy Policy]
Document: tropical_cyclone_196263_25.htm Updated: 30 May 2013